sensor_id;sensor_type;location;lat;lon;timestamp;P1;durP1;ratioP1;P2;durP2;ratioP2
22097;SDS011;11215;51.938;8.464;2022-08-19T00:00:25;6.33;;;4.20;;
22097;SDS011;11215;51.938;8.464;2022-08-19T00:02:52;8.10;;;4.40;;
22097;SDS011;11215;51.938;8.464;2022-08-19T00:05:18;6.90;;;4.40;;
22097;SDS011;11215;51.938;8.464;2022-08-19T00:07:44;5.03;;;4.10;;
22097;SDS011;11215;51.938;8.464;2022-08-19T00:10:11;6.33;;;3.70;;
22097;SDS011;11215;51.938;8.464;2022-08-19T00:12:39;5.73;;;3.90;;
22097;SDS011;11215;51.938;8.464;2022-08-19T00:15:06;5.33;;;3.90;;
22097;SDS011;11215;51.938;8.464;2022-08-19T00:17:38;5.43;;;4.20;;
22097;SDS011;11215;51.938;8.464;2022-08-19T00:20:05;5.17;;;4.17;;
22097;SDS011;11215;51.938;8.464;2022-08-19T00:22:31;5.20;;;4.40;;
22097;SDS011;11215;51.938;8.464;2022-08-19T00:24:57;4.63;;;3.47;;
22097;SDS011;11215;51.938;8.464;2022-08-19T00:27:23;5.40;;;4.27;;
22097;SDS011;11215;51.938;8.464;2022-08-19T00:29:49;4.47;;;3.60;;
22097;SDS011;11215;51.938;8.464;2022-08-19T00:32:15;5.33;;;3.77;;
22097;SDS011;11215;51.938;8.464;2022-08-19T00:34:41;5.27;;;3.80;;
22097;SDS011;11215;51.938;8.464;2022-08-19T00:37:08;5.90;;;4.07;;
22097;SDS011;11215;51.938;8.464;2022-08-19T00:39:34;5.87;;;4.33;;
22097;SDS011;11215;51.938;8.464;2022-08-19T00:41:59;7.43;;;5.00;;
22097;SDS011;11215;51.938;8.464;2022-08-19T00:44:26;4.93;;;3.93;;
22097;SDS011;11215;51.938;8.464;2022-08-19T00:46:54;5.30;;;3.70;;
22097;SDS011;11215;51.938;8.464;2022-08-19T00:49:26;7.30;;;4.73;;
22097;SDS011;11215;51.938;8.464;2022-08-19T00:52:00;7.27;;;4.00;;
22097;SDS011;11215;51.938;8.464;2022-08-19T00:54:29;5.97;;;4.63;;
22097;SDS011;11215;51.938;8.464;2022-08-19T00:56:56;17.63;;;4.37;;
22097;SDS011;11215;51.938;8.464;2022-08-19T00:59:23;5.87;;;4.33;;
22097;SDS011;11215;51.938;8.464;2022-08-19T01:01:50;5.63;;;4.20;;
22097;SDS011;11215;51.938;8.464;2022-08-19T01:04:16;4.27;;;3.87;;
22097;SDS011;11215;51.938;8.464;2022-08-19T01:06:41;6.27;;;4.23;;
22097;SDS011;11215;51.938;8.464;2022-08-19T01:09:08;4.40;;;4.00;;
22097;SDS011;11215;51.938;8.464;2022-08-19T01:11:35;7.90;;;4.03;;
22097;SDS011;11215;51.938;8.464;2022-08-19T01:14:04;6.03;;;3.77;;
22097;SDS011;11215;51.938;8.464;2022-08-19T01:16:31;6.40;;;4.47;;
22097;SDS011;11215;51.938;8.464;2022-08-19T01:18:58;4.40;;;4.00;;
22097;SDS011;11215;51.938;8.464;2022-08-19T01:21:34;5.27;;;3.90;;
22097;SDS011;11215;51.938;8.464;2022-08-19T01:24:05;4.23;;;3.83;;
22097;SDS011;11215;51.938;8.464;2022-08-19T01:26:31;4.83;;;4.07;;
22097;SDS011;11215;51.938;8.464;2022-08-19T01:29:04;5.33;;;3.63;;
22097;SDS011;11215;51.938;8.464;2022-08-19T01:31:33;6.13;;;4.17;;
22097;SDS011;11215;51.938;8.464;2022-08-19T01:33:59;6.40;;;4.27;;
22097;SDS011;11215;51.938;8.464;2022-08-19T01:36:32;5.47;;;4.23;;
22097;SDS011;11215;51.938;8.464;2022-08-19T01:39:08;5.27;;;4.27;;
22097;SDS011;11215;51.938;8.464;2022-08-19T01:41:35;6.33;;;4.07;;
22097;SDS011;11215;51.938;8.464;2022-08-19T01:44:01;7.97;;;4.90;;
22097;SDS011;11215;51.938;8.464;2022-08-19T01:46:29;5.00;;;4.47;;
22097;SDS011;11215;51.938;8.464;2022-08-19T01:48:56;6.03;;;4.93;;
22097;SDS011;11215;51.938;8.464;2022-08-19T01:51:21;7.20;;;4.80;;
22097;SDS011;11215;51.938;8.464;2022-08-19T01:53:48;6.33;;;4.60;;
22097;SDS011;11215;51.938;8.464;2022-08-19T01:56:14;7.60;;;4.80;;
22097;SDS011;11215;51.938;8.464;2022-08-19T01:59:06;8.20;;;5.43;;
22097;SDS011;11215;51.938;8.464;2022-08-19T02:01:33;5.27;;;4.50;;
22097;SDS011;11215;51.938;8.464;2022-08-19T02:03:59;7.03;;;4.77;;
22097;SDS011;11215;51.938;8.464;2022-08-19T02:06:28;5.47;;;4.50;;
22097;SDS011;11215;51.938;8.464;2022-08-19T02:08:54;5.13;;;4.57;;
22097;SDS011;11215;51.938;8.464;2022-08-19T02:11:22;5.33;;;4.63;;
22097;SDS011;11215;51.938;8.464;2022-08-19T02:13:58;7.20;;;5.50;;
22097;SDS011;11215;51.938;8.464;2022-08-19T02:16:27;6.60;;;5.03;;
22097;SDS011;11215;51.938;8.464;2022-08-19T02:18:53;5.43;;;4.33;;
22097;SDS011;11215;51.938;8.464;2022-08-19T02:21:20;6.17;;;5.20;;
22097;SDS011;11215;51.938;8.464;2022-08-19T02:23:46;5.03;;;4.17;;
22097;SDS011;11215;51.938;8.464;2022-08-19T02:26:12;5.13;;;4.63;;
22097;SDS011;11215;51.938;8.464;2022-08-19T02:28:39;5.47;;;4.93;;
22097;SDS011;11215;51.938;8.464;2022-08-19T02:31:13;6.37;;;4.87;;
22097;SDS011;11215;51.938;8.464;2022-08-19T02:33:40;6.17;;;5.00;;
22097;SDS011;11215;51.938;8.464;2022-08-19T02:36:06;6.07;;;5.00;;
22097;SDS011;11215;51.938;8.464;2022-08-19T02:38:33;5.17;;;4.20;;
22097;SDS011;11215;51.938;8.464;2022-08-19T02:41:01;6.07;;;4.40;;
22097;SDS011;11215;51.938;8.464;2022-08-19T02:43:30;7.33;;;4.87;;
22097;SDS011;11215;51.938;8.464;2022-08-19T02:45:57;5.30;;;4.50;;
22097;SDS011;11215;51.938;8.464;2022-08-19T02:48:23;6.43;;;4.63;;
22097;SDS011;11215;51.938;8.464;2022-08-19T02:50:51;5.63;;;4.70;;
22097;SDS011;11215;51.938;8.464;2022-08-19T02:53:20;6.47;;;5.23;;
22097;SDS011;11215;51.938;8.464;2022-08-19T02:55:48;5.43;;;4.60;;
22097;SDS011;11215;51.938;8.464;2022-08-19T02:58:14;8.20;;;5.33;;
22097;SDS011;11215;51.938;8.464;2022-08-19T03:00:51;8.70;;;6.17;;
22097;SDS011;11215;51.938;8.464;2022-08-19T03:03:18;5.70;;;4.90;;
22097;SDS011;11215;51.938;8.464;2022-08-19T03:05:44;5.57;;;4.43;;
22097;SDS011;11215;51.938;8.464;2022-08-19T03:08:11;5.97;;;4.83;;
22097;SDS011;11215;51.938;8.464;2022-08-19T03:10:44;6.03;;;5.40;;
22097;SDS011;11215;51.938;8.464;2022-08-19T03:13:12;6.53;;;5.00;;
22097;SDS011;11215;51.938;8.464;2022-08-19T03:15:45;6.60;;;5.10;;
22097;SDS011;11215;51.938;8.464;2022-08-19T03:18:12;5.93;;;4.83;;
22097;SDS011;11215;51.938;8.464;2022-08-19T03:20:46;5.77;;;4.57;;
22097;SDS011;11215;51.938;8.464;2022-08-19T03:23:13;5.10;;;4.47;;
22097;SDS011;11215;51.938;8.464;2022-08-19T03:25:41;8.03;;;5.07;;
22097;SDS011;11215;51.938;8.464;2022-08-19T03:28:12;6.37;;;5.07;;
22097;SDS011;11215;51.938;8.464;2022-08-19T03:30:40;6.13;;;4.77;;
22097;SDS011;11215;51.938;8.464;2022-08-19T03:33:08;5.77;;;4.90;;
22097;SDS011;11215;51.938;8.464;2022-08-19T03:35:36;6.30;;;4.80;;
22097;SDS011;11215;51.938;8.464;2022-08-19T03:38:03;6.20;;;5.33;;
22097;SDS011;11215;51.938;8.464;2022-08-19T03:40:30;5.83;;;5.23;;
22097;SDS011;11215;51.938;8.464;2022-08-19T03:42:56;5.53;;;4.97;;
22097;SDS011;11215;51.938;8.464;2022-08-19T03:45:22;5.13;;;4.70;;
22097;SDS011;11215;51.938;8.464;2022-08-19T03:47:48;6.00;;;5.37;;
22097;SDS011;11215;51.938;8.464;2022-08-19T03:50:15;7.80;;;5.90;;
22097;SDS011;11215;51.938;8.464;2022-08-19T03:52:42;6.60;;;5.87;;
22097;SDS011;11215;51.938;8.464;2022-08-19T03:55:07;6.23;;;5.20;;
22097;SDS011;11215;51.938;8.464;2022-08-19T03:57:34;7.07;;;5.50;;
22097;SDS011;11215;51.938;8.464;2022-08-19T04:00:00;6.17;;;5.30;;
22097;SDS011;11215;51.938;8.464;2022-08-19T04:02:26;5.80;;;5.27;;
22097;SDS011;11215;51.938;8.464;2022-08-19T04:04:52;5.90;;;5.23;;
22097;SDS011;11215;51.938;8.464;2022-08-19T04:07:20;5.97;;;5.33;;
22097;SDS011;11215;51.938;8.464;2022-08-19T04:09:46;5.93;;;5.13;;
22097;SDS011;11215;51.938;8.464;2022-08-19T04:12:12;7.93;;;6.13;;
22097;SDS011;11215;51.938;8.464;2022-08-19T04:14:38;9.13;;;7.03;;
22097;SDS011;11215;51.938;8.464;2022-08-19T04:17:04;7.73;;;7.00;;
22097;SDS011;11215;51.938;8.464;2022-08-19T04:19:30;8.27;;;6.63;;
22097;SDS011;11215;51.938;8.464;2022-08-19T04:21:57;7.40;;;6.03;;
22097;SDS011;11215;51.938;8.464;2022-08-19T04:24:23;8.03;;;7.27;;
22097;SDS011;11215;51.938;8.464;2022-08-19T04:26:49;11.10;;;6.90;;
22097;SDS011;11215;51.938;8.464;2022-08-19T04:29:17;7.43;;;6.60;;
22097;SDS011;11215;51.938;8.464;2022-08-19T04:31:47;8.73;;;7.10;;
22097;SDS011;11215;51.938;8.464;2022-08-19T04:34:14;8.23;;;6.77;;
22097;SDS011;11215;51.938;8.464;2022-08-19T04:36:42;7.27;;;6.00;;
22097;SDS011;11215;51.938;8.464;2022-08-19T04:39:16;8.07;;;7.27;;
22097;SDS011;11215;51.938;8.464;2022-08-19T04:41:43;8.47;;;6.57;;
22097;SDS011;11215;51.938;8.464;2022-08-19T04:44:29;8.23;;;7.00;;
22097;SDS011;11215;51.938;8.464;2022-08-19T04:46:56;10.60;;;7.70;;
22097;SDS011;11215;51.938;8.464;2022-08-19T04:49:22;9.40;;;7.53;;
22097;SDS011;11215;51.938;8.464;2022-08-19T04:51:49;8.27;;;6.87;;
22097;SDS011;11215;51.938;8.464;2022-08-19T04:54:19;7.53;;;6.67;;
22097;SDS011;11215;51.938;8.464;2022-08-19T04:56:47;9.17;;;6.87;;
22097;SDS011;11215;51.938;8.464;2022-08-19T04:59:14;8.20;;;7.07;;
22097;SDS011;11215;51.938;8.464;2022-08-19T05:01:42;9.70;;;7.90;;
22097;SDS011;11215;51.938;8.464;2022-08-19T05:04:08;8.07;;;7.27;;
22097;SDS011;11215;51.938;8.464;2022-08-19T05:06:35;8.63;;;7.20;;
22097;SDS011;11215;51.938;8.464;2022-08-19T05:09:02;10.43;;;7.70;;
22097;SDS011;11215;51.938;8.464;2022-08-19T05:11:31;13.27;;;7.27;;
22097;SDS011;11215;51.938;8.464;2022-08-19T05:13:58;8.40;;;7.20;;
22097;SDS011;11215;51.938;8.464;2022-08-19T05:16:24;7.90;;;6.50;;
22097;SDS011;11215;51.938;8.464;2022-08-19T05:18:51;7.63;;;5.73;;
22097;SDS011;11215;51.938;8.464;2022-08-19T05:21:36;8.03;;;6.27;;
22097;SDS011;11215;51.938;8.464;2022-08-19T05:24:22;7.67;;;6.57;;
22097;SDS011;11215;51.938;8.464;2022-08-19T05:26:49;11.93;;;7.90;;
22097;SDS011;11215;51.938;8.464;2022-08-19T05:29:18;10.23;;;8.20;;
22097;SDS011;11215;51.938;8.464;2022-08-19T05:31:45;9.37;;;8.20;;
22097;SDS011;11215;51.938;8.464;2022-08-19T05:34:14;8.87;;;7.50;;
22097;SDS011;11215;51.938;8.464;2022-08-19T05:36:42;9.47;;;8.47;;
22097;SDS011;11215;51.938;8.464;2022-08-19T05:39:10;10.20;;;8.00;;
22097;SDS011;11215;51.938;8.464;2022-08-19T05:41:44;11.60;;;7.73;;
22097;SDS011;11215;51.938;8.464;2022-08-19T05:44:12;10.03;;;7.93;;
22097;SDS011;11215;51.938;8.464;2022-08-19T05:46:38;12.00;;;8.93;;
22097;SDS011;11215;51.938;8.464;2022-08-19T05:49:05;13.13;;;9.30;;
22097;SDS011;11215;51.938;8.464;2022-08-19T05:51:31;11.10;;;7.73;;
22097;SDS011;11215;51.938;8.464;2022-08-19T05:53:59;10.87;;;8.43;;
22097;SDS011;11215;51.938;8.464;2022-08-19T05:56:25;12.97;;;8.33;;
22097;SDS011;11215;51.938;8.464;2022-08-19T05:58:52;10.93;;;8.60;;
22097;SDS011;11215;51.938;8.464;2022-08-19T06:01:19;10.80;;;8.80;;
22097;SDS011;11215;51.938;8.464;2022-08-19T06:03:45;10.60;;;9.50;;
22097;SDS011;11215;51.938;8.464;2022-08-19T06:06:13;10.37;;;8.90;;
22097;SDS011;11215;51.938;8.464;2022-08-19T06:08:40;10.40;;;9.40;;
22097;SDS011;11215;51.938;8.464;2022-08-19T06:13:48;9.70;;;8.63;;
22097;SDS011;11215;51.938;8.464;2022-08-19T06:16:17;13.87;;;10.67;;
22097;SDS011;11215;51.938;8.464;2022-08-19T06:18:53;11.77;;;9.27;;
22097;SDS011;11215;51.938;8.464;2022-08-19T06:21:21;14.53;;;10.00;;
22097;SDS011;11215;51.938;8.464;2022-08-19T06:23:49;11.93;;;9.93;;
22097;SDS011;11215;51.938;8.464;2022-08-19T06:26:16;13.93;;;10.57;;
22097;SDS011;11215;51.938;8.464;2022-08-19T06:28:44;13.83;;;10.60;;
22097;SDS011;11215;51.938;8.464;2022-08-19T06:31:14;14.43;;;10.77;;
22097;SDS011;11215;51.938;8.464;2022-08-19T06:33:45;11.30;;;9.00;;
22097;SDS011;11215;51.938;8.464;2022-08-19T06:38:53;10.47;;;9.43;;
22097;SDS011;11215;51.938;8.464;2022-08-19T06:41:19;11.17;;;9.90;;
22097;SDS011;11215;51.938;8.464;2022-08-19T06:43:45;13.17;;;10.73;;
22097;SDS011;11215;51.938;8.464;2022-08-19T06:46:15;10.63;;;9.27;;
22097;SDS011;11215;51.938;8.464;2022-08-19T06:48:43;11.23;;;10.03;;
22097;SDS011;11215;51.938;8.464;2022-08-19T06:51:09;13.53;;;11.33;;
22097;SDS011;11215;51.938;8.464;2022-08-19T06:53:34;11.13;;;9.43;;
22097;SDS011;11215;51.938;8.464;2022-08-19T06:56:00;15.53;;;11.23;;
22097;SDS011;11215;51.938;8.464;2022-08-19T06:58:27;13.20;;;10.67;;
22097;SDS011;11215;51.938;8.464;2022-08-19T07:01:00;13.17;;;9.90;;
22097;SDS011;11215;51.938;8.464;2022-08-19T07:03:28;12.20;;;9.10;;
22097;SDS011;11215;51.938;8.464;2022-08-19T07:05:56;12.57;;;9.53;;
22097;SDS011;11215;51.938;8.464;2022-08-19T07:08:22;12.27;;;10.27;;
22097;SDS011;11215;51.938;8.464;2022-08-19T07:10:49;11.63;;;9.83;;
22097;SDS011;11215;51.938;8.464;2022-08-19T07:13:14;13.20;;;9.90;;
22097;SDS011;11215;51.938;8.464;2022-08-19T07:15:40;11.07;;;9.43;;
22097;SDS011;11215;51.938;8.464;2022-08-19T07:18:06;10.90;;;8.77;;
22097;SDS011;11215;51.938;8.464;2022-08-19T07:20:32;10.83;;;9.17;;
22097;SDS011;11215;51.938;8.464;2022-08-19T07:23:01;12.17;;;8.87;;
22097;SDS011;11215;51.938;8.464;2022-08-19T07:25:27;11.90;;;10.07;;
22097;SDS011;11215;51.938;8.464;2022-08-19T07:28:00;9.53;;;8.53;;
22097;SDS011;11215;51.938;8.464;2022-08-19T07:30:26;8.77;;;7.80;;
22097;SDS011;11215;51.938;8.464;2022-08-19T07:32:52;10.80;;;7.93;;
22097;SDS011;11215;51.938;8.464;2022-08-19T07:35:17;11.30;;;8.40;;
22097;SDS011;11215;51.938;8.464;2022-08-19T07:37:46;7.70;;;6.83;;
22097;SDS011;11215;51.938;8.464;2022-08-19T07:40:15;10.53;;;6.70;;
22097;SDS011;11215;51.938;8.464;2022-08-19T07:42:43;9.83;;;7.10;;
22097;SDS011;11215;51.938;8.464;2022-08-19T07:45:14;9.90;;;6.23;;
22097;SDS011;11215;51.938;8.464;2022-08-19T07:47:43;7.70;;;5.50;;
22097;SDS011;11215;51.938;8.464;2022-08-19T07:50:09;8.10;;;6.10;;
22097;SDS011;11215;51.938;8.464;2022-08-19T07:52:36;6.57;;;5.67;;
22097;SDS011;11215;51.938;8.464;2022-08-19T07:55:04;7.70;;;5.30;;
22097;SDS011;11215;51.938;8.464;2022-08-19T07:57:31;6.07;;;5.47;;
22097;SDS011;11215;51.938;8.464;2022-08-19T07:59:57;8.00;;;6.10;;
22097;SDS011;11215;51.938;8.464;2022-08-19T08:02:23;6.97;;;5.80;;
22097;SDS011;11215;51.938;8.464;2022-08-19T08:04:49;7.10;;;5.13;;
22097;SDS011;11215;51.938;8.464;2022-08-19T08:07:33;7.77;;;6.07;;
22097;SDS011;11215;51.938;8.464;2022-08-19T08:10:17;7.27;;;5.87;;
22097;SDS011;11215;51.938;8.464;2022-08-19T08:12:43;7.50;;;6.33;;
22097;SDS011;11215;51.938;8.464;2022-08-19T08:15:13;8.07;;;6.60;;
22097;SDS011;11215;51.938;8.464;2022-08-19T08:17:41;10.40;;;7.07;;
22097;SDS011;11215;51.938;8.464;2022-08-19T08:20:08;7.37;;;6.23;;
22097;SDS011;11215;51.938;8.464;2022-08-19T08:22:35;8.47;;;7.10;;
22097;SDS011;11215;51.938;8.464;2022-08-19T08:25:23;8.30;;;6.40;;
22097;SDS011;11215;51.938;8.464;2022-08-19T08:27:49;9.30;;;6.70;;
22097;SDS011;11215;51.938;8.464;2022-08-19T08:30:17;8.77;;;7.60;;
22097;SDS011;11215;51.938;8.464;2022-08-19T08:32:48;7.83;;;7.10;;
22097;SDS011;11215;51.938;8.464;2022-08-19T08:35:16;12.03;;;8.80;;
22097;SDS011;11215;51.938;8.464;2022-08-19T08:37:45;8.73;;;7.57;;
22097;SDS011;11215;51.938;8.464;2022-08-19T08:40:23;7.90;;;7.10;;
22097;SDS011;11215;51.938;8.464;2022-08-19T08:42:58;9.20;;;6.97;;
22097;SDS011;11215;51.938;8.464;2022-08-19T08:45:30;7.97;;;7.17;;
22097;SDS011;11215;51.938;8.464;2022-08-19T08:48:00;7.40;;;6.70;;
22097;SDS011;11215;51.938;8.464;2022-08-19T08:50:33;10.13;;;6.63;;
22097;SDS011;11215;51.938;8.464;2022-08-19T08:53:03;11.40;;;7.40;;
22097;SDS011;11215;51.938;8.464;2022-08-19T08:55:30;9.43;;;7.40;;
22097;SDS011;11215;51.938;8.464;2022-08-19T08:58:03;9.63;;;7.70;;
22097;SDS011;11215;51.938;8.464;2022-08-19T09:00:36;7.53;;;6.73;;
22097;SDS011;11215;51.938;8.464;2022-08-19T09:03:03;6.90;;;6.30;;
22097;SDS011;11215;51.938;8.464;2022-08-19T09:11:18;6.53;;;5.90;;
22097;SDS011;11215;51.938;8.464;2022-08-19T09:14:15;6.33;;;5.73;;
22097;SDS011;11215;51.938;8.464;2022-08-19T09:17:06;5.27;;;4.77;;
22097;SDS011;11215;51.938;8.464;2022-08-19T09:19:33;5.23;;;4.47;;
22097;SDS011;11215;51.938;8.464;2022-08-19T09:22:20;8.50;;;5.27;;
22097;SDS011;11215;51.938;8.464;2022-08-19T09:24:49;4.97;;;4.10;;
22097;SDS011;11215;51.938;8.464;2022-08-19T09:27:17;5.70;;;4.87;;
22097;SDS011;11215;51.938;8.464;2022-08-19T09:29:43;5.73;;;4.33;;
22097;SDS011;11215;51.938;8.464;2022-08-19T09:32:09;6.30;;;4.00;;
22097;SDS011;11215;51.938;8.464;2022-08-19T09:34:35;5.60;;;4.67;;
22097;SDS011;11215;51.938;8.464;2022-08-19T09:37:00;4.87;;;4.37;;
22097;SDS011;11215;51.938;8.464;2022-08-19T09:39:27;4.80;;;4.30;;
22097;SDS011;11215;51.938;8.464;2022-08-19T09:41:55;4.73;;;4.17;;
22097;SDS011;11215;51.938;8.464;2022-08-19T09:44:21;5.50;;;5.00;;
22097;SDS011;11215;51.938;8.464;2022-08-19T09:46:47;6.03;;;4.70;;
22097;SDS011;11215;51.938;8.464;2022-08-19T09:49:12;4.70;;;4.30;;
22097;SDS011;11215;51.938;8.464;2022-08-19T09:51:39;6.57;;;4.57;;
22097;SDS011;11215;51.938;8.464;2022-08-19T09:54:05;5.43;;;4.17;;
22097;SDS011;11215;51.938;8.464;2022-08-19T09:56:30;5.33;;;3.30;;
22097;SDS011;11215;51.938;8.464;2022-08-19T09:58:57;5.30;;;4.80;;
22097;SDS011;11215;51.938;8.464;2022-08-19T10:01:25;5.00;;;4.53;;
22097;SDS011;11215;51.938;8.464;2022-08-19T10:03:55;4.17;;;3.87;;
22097;SDS011;11215;51.938;8.464;2022-08-19T10:06:23;4.07;;;3.67;;
22097;SDS011;11215;51.938;8.464;2022-08-19T10:08:51;3.60;;;3.30;;
22097;SDS011;11215;51.938;8.464;2022-08-19T10:11:18;5.33;;;3.60;;
22097;SDS011;11215;51.938;8.464;2022-08-19T10:13:45;3.50;;;3.20;;
22097;SDS011;11215;51.938;8.464;2022-08-19T10:16:17;4.37;;;3.07;;
22097;SDS011;11215;51.938;8.464;2022-08-19T10:18:45;2.93;;;2.60;;
22097;SDS011;11215;51.938;8.464;2022-08-19T10:21:12;4.37;;;2.10;;
22097;SDS011;11215;51.938;8.464;2022-08-19T10:23:41;2.33;;;2.13;;
22097;SDS011;11215;51.938;8.464;2022-08-19T10:26:10;2.23;;;2.03;;
22097;SDS011;11215;51.938;8.464;2022-08-19T10:28:40;2.43;;;2.13;;
22097;SDS011;11215;51.938;8.464;2022-08-19T10:31:07;2.55;;;2.35;;
22097;SDS011;11215;51.938;8.464;2022-08-19T10:33:35;2.45;;;2.25;;
22097;SDS011;11215;51.938;8.464;2022-08-19T10:36:06;4.50;;;3.23;;
22097;SDS011;11215;51.938;8.464;2022-08-19T10:38:34;4.53;;;3.80;;
22097;SDS011;11215;51.938;8.464;2022-08-19T10:41:13;4.10;;;3.43;;
22097;SDS011;11215;51.938;8.464;2022-08-19T10:43:44;2.90;;;2.65;;
22097;SDS011;11215;51.938;8.464;2022-08-19T10:46:12;2.97;;;2.73;;
22097;SDS011;11215;51.938;8.464;2022-08-19T10:48:40;2.42;;;2.22;;
22097;SDS011;11215;51.938;8.464;2022-08-19T10:51:06;3.38;;;2.67;;
22097;SDS011;11215;51.938;8.464;2022-08-19T10:53:51;3.10;;;2.78;;
22097;SDS011;11215;51.938;8.464;2022-08-19T10:56:17;3.03;;;2.72;;
22097;SDS011;11215;51.938;8.464;2022-08-19T10:59:02;3.55;;;2.22;;
22097;SDS011;11215;51.938;8.464;2022-08-19T11:01:29;2.67;;;2.47;;
22097;SDS011;11215;51.938;8.464;2022-08-19T11:03:57;2.45;;;2.25;;
22097;SDS011;11215;51.938;8.464;2022-08-19T11:06:24;2.10;;;2.00;;
22097;SDS011;11215;51.938;8.464;2022-08-19T11:08:50;3.78;;;2.47;;
22097;SDS011;11215;51.938;8.464;2022-08-19T11:11:16;4.88;;;2.85;;
22097;SDS011;11215;51.938;8.464;2022-08-19T11:13:43;2.90;;;2.50;;
22097;SDS011;11215;51.938;8.464;2022-08-19T11:16:18;2.60;;;2.30;;
22097;SDS011;11215;51.938;8.464;2022-08-19T11:18:47;2.30;;;2.08;;
22097;SDS011;11215;51.938;8.464;2022-08-19T11:21:20;2.58;;;2.38;;
22097;SDS011;11215;51.938;8.464;2022-08-19T11:23:50;2.50;;;2.30;;
22097;SDS011;11215;51.938;8.464;2022-08-19T11:26:17;2.58;;;2.13;;
22097;SDS011;11215;51.938;8.464;2022-08-19T11:28:44;2.97;;;2.45;;
22097;SDS011;11215;51.938;8.464;2022-08-19T11:31:14;3.30;;;2.72;;
22097;SDS011;11215;51.938;8.464;2022-08-19T11:33:42;2.40;;;2.20;;
22097;SDS011;11215;51.938;8.464;2022-08-19T11:36:08;2.60;;;2.38;;
22097;SDS011;11215;51.938;8.464;2022-08-19T11:38:35;2.80;;;2.60;;
22097;SDS011;11215;51.938;8.464;2022-08-19T11:41:02;4.53;;;2.30;;
22097;SDS011;11215;51.938;8.464;2022-08-19T11:43:31;2.95;;;2.67;;
22097;SDS011;11215;51.938;8.464;2022-08-19T11:45:57;2.83;;;2.60;;
22097;SDS011;11215;51.938;8.464;2022-08-19T11:48:23;3.55;;;2.78;;
22097;SDS011;11215;51.938;8.464;2022-08-19T11:50:50;3.10;;;2.80;;
22097;SDS011;11215;51.938;8.464;2022-08-19T11:53:17;3.72;;;2.78;;
22097;SDS011;11215;51.938;8.464;2022-08-19T11:55:45;3.03;;;2.83;;
22097;SDS011;11215;51.938;8.464;2022-08-19T11:58:12;3.33;;;3.03;;
22097;SDS011;11215;51.938;8.464;2022-08-19T12:00:39;3.08;;;2.78;;
22097;SDS011;11215;51.938;8.464;2022-08-19T12:03:05;2.47;;;2.28;;
22097;SDS011;11215;51.938;8.464;2022-08-19T12:05:31;2.80;;;2.60;;
22097;SDS011;11215;51.938;8.464;2022-08-19T12:07:56;3.65;;;2.47;;
22097;SDS011;11215;51.938;8.464;2022-08-19T12:10:22;5.03;;;3.13;;
22097;SDS011;11215;51.938;8.464;2022-08-19T12:12:48;4.03;;;3.03;;
22097;SDS011;11215;51.938;8.464;2022-08-19T12:15:15;3.53;;;2.85;;
22097;SDS011;11215;51.938;8.464;2022-08-19T12:17:41;4.38;;;2.95;;
22097;SDS011;11215;51.938;8.464;2022-08-19T12:20:08;3.33;;;3.03;;
22097;SDS011;11215;51.938;8.464;2022-08-19T12:22:35;3.83;;;2.75;;
22097;SDS011;11215;51.938;8.464;2022-08-19T12:25:02;2.63;;;2.42;;
22097;SDS011;11215;51.938;8.464;2022-08-19T12:27:29;2.40;;;2.20;;
22097;SDS011;11215;51.938;8.464;2022-08-19T12:29:56;6.03;;;2.70;;
22097;SDS011;11215;51.938;8.464;2022-08-19T12:32:22;3.20;;;2.42;;
22097;SDS011;11215;51.938;8.464;2022-08-19T12:34:49;2.38;;;2.28;;
22097;SDS011;11215;51.938;8.464;2022-08-19T12:37:15;3.15;;;2.85;;
22097;SDS011;11215;51.938;8.464;2022-08-19T12:39:41;3.13;;;2.80;;
22097;SDS011;11215;51.938;8.464;2022-08-19T12:42:09;3.13;;;2.90;;
22097;SDS011;11215;51.938;8.464;2022-08-19T12:44:36;3.30;;;3.00;;
22097;SDS011;11215;51.938;8.464;2022-08-19T12:47:04;7.28;;;3.28;;
22097;SDS011;11215;51.938;8.464;2022-08-19T12:49:31;3.03;;;2.80;;
22097;SDS011;11215;51.938;8.464;2022-08-19T12:51:59;2.90;;;2.70;;
22097;SDS011;11215;51.938;8.464;2022-08-19T12:54:26;4.03;;;2.55;;
22097;SDS011;11215;51.938;8.464;2022-08-19T12:56:52;3.20;;;2.58;;
22097;SDS011;11215;51.938;8.464;2022-08-19T12:59:18;2.97;;;2.78;;
22097;SDS011;11215;51.938;8.464;2022-08-19T13:01:44;3.25;;;2.50;;
22097;SDS011;11215;51.938;8.464;2022-08-19T13:04:09;4.15;;;2.83;;
22097;SDS011;11215;51.938;8.464;2022-08-19T13:06:35;2.70;;;2.50;;
22097;SDS011;11215;51.938;8.464;2022-08-19T13:09:02;3.40;;;2.88;;
22097;SDS011;11215;51.938;8.464;2022-08-19T13:11:28;3.22;;;2.72;;
22097;SDS011;11215;51.938;8.464;2022-08-19T13:13:57;2.95;;;2.75;;
22097;SDS011;11215;51.938;8.464;2022-08-19T13:16:23;2.83;;;2.60;;
22097;SDS011;11215;51.938;8.464;2022-08-19T13:18:50;3.47;;;3.17;;
22097;SDS011;11215;51.938;8.464;2022-08-19T13:21:17;2.95;;;2.75;;
22097;SDS011;11215;51.938;8.464;2022-08-19T13:23:44;3.17;;;2.90;;
22097;SDS011;11215;51.938;8.464;2022-08-19T13:26:11;3.13;;;2.80;;
22097;SDS011;11215;51.938;8.464;2022-08-19T13:28:38;4.00;;;2.70;;
22097;SDS011;11215;51.938;8.464;2022-08-19T13:31:23;4.10;;;2.75;;
22097;SDS011;11215;51.938;8.464;2022-08-19T13:34:09;2.90;;;2.70;;
22097;SDS011;11215;51.938;8.464;2022-08-19T13:36:36;3.05;;;2.85;;
22097;SDS011;11215;51.938;8.464;2022-08-19T13:39:02;3.20;;;3.00;;
22097;SDS011;11215;51.938;8.464;2022-08-19T13:41:29;3.08;;;2.88;;
22097;SDS011;11215;51.938;8.464;2022-08-19T13:43:55;3.10;;;2.90;;
22097;SDS011;11215;51.938;8.464;2022-08-19T13:46:20;3.28;;;2.70;;
22097;SDS011;11215;51.938;8.464;2022-08-19T13:48:46;3.72;;;3.10;;
22097;SDS011;11215;51.938;8.464;2022-08-19T13:51:15;3.17;;;2.97;;
22097;SDS011;11215;51.938;8.464;2022-08-19T13:53:42;3.65;;;3.33;;
22097;SDS011;11215;51.938;8.464;2022-08-19T13:56:11;3.13;;;2.90;;
22097;SDS011;11215;51.938;8.464;2022-08-19T13:58:39;3.03;;;2.83;;
22097;SDS011;11215;51.938;8.464;2022-08-19T14:01:05;3.17;;;2.92;;
22097;SDS011;11215;51.938;8.464;2022-08-19T14:03:32;3.63;;;3.33;;
22097;SDS011;11215;51.938;8.464;2022-08-19T14:05:58;3.00;;;2.60;;
22097;SDS011;11215;51.938;8.464;2022-08-19T14:08:27;2.65;;;2.45;;
22097;SDS011;11215;51.938;8.464;2022-08-19T14:11:10;2.75;;;2.55;;
22097;SDS011;11215;51.938;8.464;2022-08-19T14:13:43;2.97;;;2.72;;
22097;SDS011;11215;51.938;8.464;2022-08-19T14:18:59;3.35;;;2.63;;
22097;SDS011;11215;51.938;8.464;2022-08-19T14:21:28;2.72;;;2.53;;
22097;SDS011;11215;51.938;8.464;2022-08-19T14:24:07;3.88;;;2.83;;
22097;SDS011;11215;51.938;8.464;2022-08-19T14:26:33;4.55;;;2.58;;
22097;SDS011;11215;51.938;8.464;2022-08-19T14:29:04;3.65;;;2.75;;
22097;SDS011;11215;51.938;8.464;2022-08-19T14:31:38;2.90;;;2.70;;
22097;SDS011;11215;51.938;8.464;2022-08-19T14:34:13;4.55;;;2.80;;
22097;SDS011;11215;51.938;8.464;2022-08-19T14:36:39;9.35;;;3.08;;
22097;SDS011;11215;51.938;8.464;2022-08-19T14:39:06;4.30;;;2.90;;
22097;SDS011;11215;51.938;8.464;2022-08-19T14:41:33;3.20;;;3.00;;
22097;SDS011;11215;51.938;8.464;2022-08-19T14:43:59;3.38;;;3.00;;
22097;SDS011;11215;51.938;8.464;2022-08-19T14:49:41;2.70;;;2.55;;
22097;SDS011;11215;51.938;8.464;2022-08-19T14:52:12;4.40;;;3.03;;
22097;SDS011;11215;51.938;8.464;2022-08-19T14:54:55;3.97;;;2.97;;
22097;SDS011;11215;51.938;8.464;2022-08-19T14:57:21;3.65;;;3.03;;
22097;SDS011;11215;51.938;8.464;2022-08-19T15:00:04;18.50;;;3.50;;
22097;SDS011;11215;51.938;8.464;2022-08-19T15:03:09;4.00;;;3.08;;
22097;SDS011;11215;51.938;8.464;2022-08-19T15:05:51;13.95;;;3.88;;
22097;SDS011;11215;51.938;8.464;2022-08-19T15:08:21;3.58;;;2.97;;
22097;SDS011;11215;51.938;8.464;2022-08-19T15:10:49;3.55;;;3.10;;